CYRQCYQB

Guest
Details From CYRQ - TROIS RIVIERES
To CYQB - Quebec Jean Lesage Intl
Flight Number -
Tags generated
Created
Modified
Stats Distance 59 nm / 110 km
Max Altitude 2,300 ft / 701 m
Waypoints 3
Social Downloads 0
Likes 0
Share VATSIM

Download

Looking for another format? Having issues loading an existing format? Contact us
Advertisement - Login to hide

Notes

Basic altitude profile: - Ascent Rate: 2500ft/min - Ascent Speed: 130kts - Cruise Altitude: 2500ft - Cruise Speed: 160kts - Descent Rate: 1500ft/min - Descent Speed: 130kts Options: - Use NATs: yes - Use PACOTS: yes - Use low airways: yes - Use high airways: yes

Route

CYRQ YQB CYQB

ID Type Via Altitude Latitude Longitude Leg Dist Tot Dist Heading (true) Name
O CYRQ APT - 0 ft / 0 m 46.35274˚ -72.67944˚ - 0 nm - TROIS RIVIERES
YQB VOR - 2,300 ft / 701 m 46.70531˚ -71.62625˚ 48 nm 48 nm 64° / 64° QUEBEC VORTAC
O CYQB APT - 0 ft / 0 m 46.78946˚ -71.39276˚ 10 nm 59 nm 62° / 62° Quebec Jean Lesage Intl

Altitude Profile

Advertisement - Login to hide

CYRQ

Details ICAO CYRQ (YRQ)
Name TROIS RIVIERES
Region Canada
Timezone America/Montreal (UTC-4.0)
Stats Elevation 199 ft / 61 m (AMSL)
Location 46.352741° -72.679441°
Runways 1
Magnetic Variation 15.086° W

METAR

CYRQ 211300Z AUTO 22008KT 9SM CLR 16/05 A3005 RMK SLP178 DENSITY ALT 200FT

Decode

TAF

TAF CYRQ 211338Z 2114/2202 22007KT P6SM SKC FM211700 26012G22KT P6SM SCT060 BECMG 2123/2201 35010KT RMK FCST BASED ON AUTO OBS. NXT FCST BY 212000Z

Decode

Departure Runways

ID Width Length Bearing (true) Bearing (mag) Surface Threshold Offset Overrun Length
05 150 ft / 46 m 6,001 ft / 1,829 m 31.33° 46.42° Asphalt 0 ft / 0 m 300 ft / 91 m
23 150 ft / 46 m 6,001 ft / 1,829 m 211.34° 226.43° Asphalt 0 ft / 0 m 300 ft / 91 m

CYQB

Details ICAO CYQB (YQB)
Name Quebec Jean Lesage Intl
Region Canada
Timezone America/Montreal (UTC-4.0)
Stats Elevation 244 ft / 74 m (AMSL)
Location 46.789458° -71.392764°
Runways 2
Magnetic Variation 15.796° W

METAR

CYQB 211300Z 23010G16KT 30SM FEW080 15/03 A3002 RMK AC1 SLP169

Decode

TAF

TAF CYQB 211138Z 2112/2212 24007KT P6SM SCT080 BECMG 2114/2116 28015G25KT BKN060 FM212200 30010KT P6SM SCT060 BECMG 2203/2205 VRB03KT RMK NXT FCST BY 211800Z

Decode

Destination Runways

ID Width Length Bearing (true) Bearing (mag) Surface Threshold Offset Overrun Length
06 150 ft / 46 m 9,020 ft / 2,749 m 44.00° 59.80° Asphalt 0 ft / 0 m 0 ft / 0 m
12 150 ft / 46 m 5,678 ft / 1,731 m 97.58° 113.38° Asphalt 0 ft / 0 m 0 ft / 0 m
24 150 ft / 46 m 9,020 ft / 2,749 m 224.02° 239.82° Asphalt 0 ft / 0 m 0 ft / 0 m
30 150 ft / 46 m 5,678 ft / 1,731 m 277.60° 293.40° Asphalt 0 ft / 0 m 0 ft / 0 m

Approach Navaids

Runway Type Ident Frequency Range Bearing (true) Bearing (mag) Slope Elevation
06 Localiser IQB 109.50 MHz 18 nm / 33 km 44.33° 60.13° - 197 ft / 60 m (AMSL)
06 Glidescope IQB 109.50 MHz 18 nm / 33 km 42.00° 57.80° 3.00° 233 ft / 71 m (AMSL)

Popular Alternatives